Main page
METAR-TAF:

METAR-TAF

Airports :

Hagåtña, Guam, United States

Antonio B. Won Pat International Airport

latitude: 13-29N, longitude: 144-48E, elevation: 91 m

Current weather observation

The report was made 1 hour and 5 minutes ago, at 20:54 UTC
Wind 8 kt from the East
Temperature 26°C
Humidity 84%
Pressure 1013 hPa
Visibility: 16.1 km
Clear sky

METAR: PGUM 192054Z 08008KT 10SM CLR 26/23 A2991 RMK AO2 SLP120 T02560228 53008

Time: 07:59 (21:59 UTC)

Forecast

The report was made 4 hours and 39 minutes ago, at 17:20 UTC
Forecast valid from 19 at 18 UTC to 20 at 24 UTC
Wind 8 kt from the East/Northeast
Visibility: 10 km
Few clouds at a height of 2500 ft
Few clouds at a height of 5000 ft
From 19 at 2300 UTC
Wind 14 kt from the East/Northeast
Visibility: 10 km
Scattered clouds at a height of 2000 ft
Scattered clouds at a height of 5000 ft
showers in vicinity

TAF: PGUM 191720Z 1918/2024 07008KT P6SM FEW025 FEW050 FM192300 07014KT P6SM VCSH SCT020 SCT050

Weather observations and forecasts of more than 4000 airports (METAR and TAF reports).

The available stations are represented by yellow and red dots on the map.

Hover mouse over dot to see the name of the station.

Then click to see weather observations and forecasts.

To change the map : click on the green buttons with a black cross to zoom in, on the green button with a dash to zoom out, or on the green arrows for adjacent maps.


METAR-TAF: